createdAt,value
2018-12-18T19:16:33.654Z,16.04
2018-12-18T19:16:59.228Z,16.23
2018-12-18T19:17:24.815Z,16.38
2018-12-18T19:17:50.361Z,16.52
2018-12-18T19:18:15.934Z,16.71
2018-12-18T19:18:41.505Z,16.71
2018-12-18T19:19:07.082Z,16.88
2018-12-18T19:19:32.673Z,16.92
2018-12-18T19:19:58.229Z,17.06
2018-12-18T19:20:23.792Z,17.14
2018-12-18T19:20:49.389Z,17.18
2018-12-18T19:21:14.949Z,17.28
2018-12-18T19:21:40.573Z,17.46
2018-12-18T19:22:06.203Z,17.54
2018-12-18T19:22:31.869Z,17.7
2018-12-18T19:22:57.515Z,17.63
2018-12-18T19:23:23.117Z,17.84
2018-12-18T19:23:48.771Z,17.95
2018-12-18T19:24:14.378Z,18.04
2018-12-18T19:24:39.970Z,18.13
2018-12-18T19:25:05.528Z,18.24
2018-12-18T19:25:31.118Z,18.28
2018-12-18T19:25:56.736Z,18.31
2018-12-18T19:26:22.398Z,18.42
2018-12-18T19:26:48.024Z,18.5
2018-12-18T19:27:13.644Z,18.61
2018-12-18T19:27:39.219Z,18.65
2018-12-18T19:28:04.816Z,18.65
2018-12-18T19:28:30.384Z,18.68
2018-12-18T19:28:55.968Z,18.79
2018-12-18T19:29:21.538Z,18.84
2018-12-18T19:29:47.127Z,18.95
2018-12-18T19:30:12.728Z,18.94
2018-12-18T19:30:38.281Z,19.06
2018-12-18T19:31:03.878Z,19.15
2018-12-18T19:31:29.500Z,19.18
2018-12-18T19:31:55.094Z,19.24
2018-12-18T19:32:20.678Z,19.32
2018-12-18T19:32:46.956Z,19.29
2018-12-18T19:33:11.836Z,19.42
2018-12-18T19:33:37.383Z,19.53
2018-12-18T19:34:03.891Z,19.48
2018-12-18T19:34:28.524Z,19.46
2018-12-18T19:34:54.097Z,19.53
2018-12-18T19:35:19.678Z,19.65
2018-12-18T19:35:45.275Z,19.66
2018-12-18T19:36:10.862Z,19.65
2018-12-18T19:36:36.442Z,19.68
2018-12-18T19:37:02.061Z,19.75
2018-12-18T19:37:27.651Z,19.8
2018-12-18T19:37:53.213Z,19.79
2018-12-18T19:38:18.804Z,19.87
2018-12-18T19:38:44.382Z,19.95
2018-12-18T19:39:09.937Z,19.94
2018-12-18T19:39:35.515Z,20.03
2018-12-18T19:40:01.069Z,20.12
2018-12-18T19:40:26.626Z,20.16
2018-12-18T19:40:52.294Z,20.16
2018-12-18T19:41:17.860Z,20.24
2018-12-18T19:41:43.446Z,20.21
2018-12-18T19:42:09.036Z,20.28
2018-12-18T19:42:34.762Z,20.27
2018-12-18T19:43:00.333Z,20.33
2018-12-18T19:43:26.132Z,20.42
2018-12-18T19:43:51.810Z,20.34
2018-12-18T19:44:17.342Z,20.42
2018-12-18T19:44:43.014Z,20.59
2018-12-18T19:45:08.796Z,20.54
2018-12-18T19:45:35.278Z,20.64
2018-12-18T19:46:01.004Z,20.59
2018-12-18T19:46:26.597Z,20.66
2018-12-18T19:46:52.173Z,20.69
2018-12-18T19:47:17.734Z,20.71
2018-12-18T19:47:43.323Z,20.72
2018-12-18T19:48:08.940Z,20.74
2018-12-18T19:48:34.544Z,20.84
2018-12-18T19:49:00.136Z,20.86
2018-12-18T19:49:25.746Z,20.86
2018-12-18T19:49:51.301Z,20.84
2018-12-18T19:50:16.909Z,20.86
2018-12-18T19:50:42.440Z,20.9
2018-12-18T19:51:08.059Z,20.93
2018-12-18T19:51:33.643Z,20.93
2018-12-18T19:51:59.242Z,20.9
2018-12-18T19:52:24.812Z,21.01
2018-12-18T19:52:50.383Z,21.05
2018-12-18T19:53:15.980Z,21.08
2018-12-18T19:53:41.565Z,21.16
2018-12-18T19:54:07.164Z,21.11
2018-12-18T19:54:32.738Z,21.13
2018-12-18T19:54:58.342Z,21.11
2018-12-18T19:55:23.932Z,21.13
2018-12-18T19:55:49.568Z,21.23
2018-12-18T19:56:15.164Z,21.17
2018-12-18T19:56:40.779Z,21.17
2018-12-18T19:57:06.359Z,21.23
2018-12-18T19:57:32.072Z,21.23
2018-12-18T19:57:57.599Z,21.3
2018-12-18T19:58:23.277Z,21.27
2018-12-18T19:59:21.956Z,21.26
2018-12-18T19:59:47.543Z,21.3
2018-12-18T20:00:13.180Z,21.35
2018-12-18T20:00:38.687Z,21.41
2018-12-18T20:01:04.284Z,21.36
2018-12-18T20:01:29.838Z,21.39
2018-12-18T20:01:55.439Z,21.36
2018-12-18T20:02:21.019Z,21.41
2018-12-18T20:02:46.598Z,21.42
2018-12-18T20:03:12.168Z,21.48
2018-12-18T20:03:37.768Z,21.54
2018-12-18T20:04:03.337Z,21.54
2018-12-18T20:04:28.916Z,21.48
2018-12-18T20:04:54.496Z,21.51
2018-12-18T20:05:20.093Z,21.54
2018-12-18T20:05:45.671Z,21.53
2018-12-18T20:06:11.267Z,21.59
2018-12-18T20:06:36.826Z,21.63
2018-12-18T20:07:02.395Z,21.57
2018-12-18T20:07:27.992Z,21.61
2018-12-18T20:07:53.606Z,21.56
2018-12-18T20:08:19.143Z,21.57
2018-12-18T20:08:44.729Z,21.57
2018-12-18T20:09:10.303Z,21.61
2018-12-18T20:09:35.870Z,21.59
2018-12-18T20:10:01.455Z,21.67
2018-12-18T20:10:27.045Z,21.69
2018-12-18T20:10:52.651Z,21.69
2018-12-18T20:11:18.253Z,21.66
2018-12-18T20:11:43.827Z,21.67
2018-12-18T20:12:09.416Z,21.66
2018-12-18T20:12:35.003Z,21.69
2018-12-18T20:13:00.579Z,21.75
2018-12-18T20:13:26.228Z,21.74
2018-12-18T20:13:51.753Z,21.71
2018-12-18T20:14:17.317Z,21.71
2018-12-18T20:14:42.955Z,21.71
2018-12-18T20:15:08.531Z,21.72
2018-12-18T20:15:34.117Z,21.78
2018-12-18T20:15:59.673Z,21.76
2018-12-18T20:16:25.259Z,21.75
2018-12-18T20:16:50.858Z,21.79
2018-12-18T20:17:16.436Z,21.81
2018-12-18T20:17:42.041Z,21.79
2018-12-18T20:18:07.649Z,21.82
2018-12-18T20:18:33.229Z,21.79
2018-12-18T20:18:58.812Z,21.85
2018-12-18T20:19:24.367Z,21.81
2018-12-18T20:19:49.950Z,21.88
2018-12-18T20:20:15.535Z,21.91
2018-12-18T20:20:41.124Z,21.88
2018-12-18T20:21:07.661Z,21.85
2018-12-18T20:21:32.313Z,21.88
2018-12-18T20:21:57.908Z,21.85
2018-12-18T20:22:23.473Z,21.88
2018-12-18T20:22:49.061Z,21.92
2018-12-18T20:23:14.654Z,21.94
2018-12-18T20:23:40.219Z,21.91
2018-12-18T20:24:05.816Z,21.91
2018-12-18T20:24:31.373Z,21.92
2018-12-18T20:24:56.958Z,21.92
2018-12-18T20:25:22.605Z,21.95
2018-12-18T20:25:48.176Z,21.98
2018-12-18T20:26:13.770Z,21.98
2018-12-18T20:26:39.338Z,21.94
2018-12-18T20:27:04.916Z,22.01
2018-12-18T20:27:30.499Z,21.99
2018-12-18T20:27:56.077Z,22.04
2018-12-18T20:28:21.659Z,21.98
2018-12-18T20:28:47.235Z,21.94
2018-12-18T20:29:12.825Z,21.97
2018-12-18T20:29:38.397Z,21.99
2018-12-18T20:30:03.959Z,21.94
2018-12-18T20:30:29.534Z,22.04
2018-12-18T20:30:55.124Z,22.04
2018-12-18T20:31:20.708Z,21.99
2018-12-18T20:31:46.287Z,21.98
2018-12-18T20:32:11.876Z,21.94
2018-12-18T20:32:37.445Z,22.09
2018-12-18T20:33:03.061Z,21.98
2018-12-18T20:33:28.623Z,21.98
2018-12-18T20:33:54.216Z,22.09
2018-12-18T20:34:19.815Z,22.01
2018-12-18T20:34:45.386Z,22.1
2018-12-18T20:35:10.981Z,22.06
2018-12-18T20:35:36.557Z,22.06
2018-12-18T20:36:02.145Z,22.12
2018-12-18T20:36:27.734Z,22.09
2018-12-18T20:36:53.315Z,22.1
2018-12-18T20:37:18.901Z,22.1
2018-12-18T20:37:44.547Z,22.07
2018-12-18T20:38:16.564Z,22.14
2018-12-18T20:38:35.717Z,22.14
2018-12-18T20:39:01.290Z,22.09
2018-12-18T20:39:26.883Z,22.13
2018-12-18T20:39:52.647Z,22.12
2018-12-18T20:40:18.034Z,22.1
2018-12-18T20:40:43.617Z,22.16
2018-12-18T20:41:09.204Z,22.09
2018-12-18T20:41:34.780Z,22.13
2018-12-18T20:42:00.388Z,22.14
2018-12-18T20:42:25.998Z,22.16
2018-12-18T20:42:51.561Z,22.16
2018-12-18T20:43:17.155Z,22.09
2018-12-18T20:43:42.726Z,22.07
2018-12-18T20:44:08.313Z,22.16
2018-12-18T20:44:33.931Z,22.16
2018-12-18T20:44:59.504Z,22.16
2018-12-18T20:45:25.087Z,22.1
2018-12-18T20:45:50.656Z,22.14
2018-12-18T20:46:16.269Z,22.09
2018-12-18T20:46:41.817Z,22.06
2018-12-18T20:47:07.398Z,22.16
2018-12-18T20:47:32.985Z,22.13
2018-12-18T20:47:58.585Z,22.12
2018-12-18T20:48:24.170Z,22.16
2018-12-18T20:48:49.750Z,22.16
2018-12-18T20:49:15.321Z,22.14
2018-12-18T20:49:40.970Z,22.19
2018-12-18T20:50:06.490Z,22.01
2018-12-18T20:50:32.079Z,22.12
2018-12-18T20:50:57.667Z,22.13
2018-12-18T20:51:23.253Z,22.14
2018-12-18T20:51:48.848Z,22.1
2018-12-18T20:52:14.424Z,22.04
2018-12-18T20:52:39.995Z,22.19
2018-12-18T20:53:05.552Z,22.1
2018-12-18T20:53:31.140Z,22.13
2018-12-18T20:53:56.733Z,22.14
2018-12-18T20:54:22.311Z,22.17
2018-12-18T20:54:47.927Z,22.13
2018-12-18T20:55:13.492Z,22.16
2018-12-18T20:55:39.069Z,22.07
2018-12-18T20:56:05.371Z,22.2
2018-12-18T20:56:30.956Z,22.09
2018-12-18T20:56:56.524Z,22.1
2018-12-18T20:57:22.072Z,22.19
2018-12-18T20:57:47.646Z,22.19
2018-12-18T20:58:13.221Z,22.17
2018-12-18T20:58:38.819Z,22.14
2018-12-18T20:59:04.457Z,22.17
2018-12-18T20:59:29.984Z,22.19
2018-12-18T20:59:55.620Z,22.13
2018-12-18T21:00:21.204Z,22.17
2018-12-18T21:00:46.785Z,22.16
2018-12-18T21:01:12.387Z,22.22
2018-12-18T21:01:38.025Z,22.16
2018-12-18T21:02:03.577Z,22.14
2018-12-18T21:02:29.170Z,22.14
2018-12-18T21:02:54.742Z,22.19
2018-12-18T21:03:20.365Z,22.14
2018-12-18T21:03:45.927Z,22.2
2018-12-18T21:04:11.515Z,22.14
2018-12-18T21:04:37.981Z,22.13
2018-12-18T21:05:02.701Z,22.14
2018-12-18T21:05:28.305Z,22.27
2018-12-18T21:05:53.871Z,22.25
2018-12-18T21:06:19.432Z,22.14
2018-12-18T21:06:45.012Z,22.14
2018-12-18T21:07:10.620Z,22.19
2018-12-18T21:07:36.232Z,22.16
2018-12-18T21:08:01.800Z,22.27
2018-12-18T21:08:27.391Z,22.16
2018-12-18T21:08:52.980Z,22.2
2018-12-18T21:09:18.557Z,22.19
2018-12-18T21:09:44.162Z,22.27
2018-12-18T21:10:09.735Z,22.16
2018-12-18T21:10:35.311Z,22.19
2018-12-18T21:11:00.913Z,22.14
2018-12-18T21:11:26.509Z,22.17
2018-12-18T21:11:52.107Z,22.19
2018-12-18T21:12:17.689Z,22.14
2018-12-18T21:12:43.252Z,22.16
2018-12-18T21:13:08.837Z,22.2
2018-12-18T21:13:34.417Z,22.17
2018-12-18T21:14:00.009Z,22.14
2018-12-18T21:14:25.591Z,22.2
2018-12-18T21:14:51.173Z,22.14
2018-12-18T21:15:16.736Z,22.23
2018-12-18T21:15:42.298Z,22.14
2018-12-18T21:16:07.881Z,22.22
2018-12-18T21:16:33.447Z,22.19
2018-12-18T21:16:59.043Z,22.17
2018-12-18T21:17:24.614Z,22.17
2018-12-18T21:17:50.186Z,22.19
2018-12-18T21:18:15.763Z,22.22
2018-12-18T21:18:41.351Z,22.17
2018-12-18T21:19:06.927Z,22.2
2018-12-18T21:19:32.507Z,22.14
2018-12-18T21:19:58.080Z,22.25
2018-12-18T21:20:23.673Z,22.22
2018-12-18T21:20:49.238Z,22.13
2018-12-18T21:21:15.502Z,22.2
2018-12-18T21:21:40.402Z,22.23
2018-12-18T21:22:05.959Z,22.17
2018-12-18T21:22:31.523Z,22.17
2018-12-18T21:22:57.103Z,22.23
